Time;durP1;ratioP1;P1;durP2;ratioP2;P2;SDS_P1;SDS_P2;PMS_P1;PMS_P2;Temp;Humidity;BMP_temperature;BMP_pressure;BME280_temperature;BME280_humidity;BME280_pressure;Samples;Min_cycle;Max_cycle;Signal;HPM_P1;HPM_P2
2022/11/01 00:01:34;;;;;;;29.95;10.57;;;;;;;;;;6273568;22;20030;-58
2022/11/01 00:04:08;;;;;;;32.88;10.27;;;;;;;;;;6300684;22;20024;-58
2022/11/01 00:06:36;;;;;;;28.73;10.65;;;;;;;;;;6298687;22;20101;-58
2022/11/01 00:09:03;;;;;;;26.98;10.27;;;;;;;;;;6300255;22;20472;-58
2022/11/01 00:11:37;;;;;;;28.20;10.65;;;;;;;;;;6302321;22;20023;-49
2022/11/01 00:14:04;;;;;;;33.75;10.20;;;;;;;;;;6301838;22;20363;-61
2022/11/01 00:16:38;;;;;;;27.30;8.93;;;;;;;;;;6301539;22;20023;-51
2022/11/01 00:19:05;;;;;;;33.47;9.77;;;;;;;;;;6302445;22;20026;-52
2022/11/01 00:21:32;;;;;;;32.47;9.45;;;;;;;;;;6300482;22;20023;-51
2022/11/01 00:24:06;;;;;;;41.42;9.43;;;;;;;;;;6301451;22;20076;-52
2022/11/01 00:26:33;;;;;;;25.13;9.20;;;;;;;;;;6301873;22;20029;-52
2022/11/01 00:29:07;;;;;;;32.83;9.07;;;;;;;;;;6301369;22;20015;-53
2022/11/01 00:31:34;;;;;;;23.20;8.68;;;;;;;;;;6302404;22;20023;-58
2022/11/01 00:34:04;;;;;;;32.42;9.05;;;;;;;;;;6300529;22;20020;-66
2022/11/01 00:36:38;;;;;;;28.58;8.50;;;;;;;;;;6300513;22;20025;-66
2022/11/01 00:39:06;;;;;;;25.45;7.78;;;;;;;;;;6301605;22;20015;-66
2022/11/01 00:41:34;;;;;;;21.08;7.28;;;;;;;;;;6300005;22;20103;-66
2022/11/01 00:44:08;;;;;;;32.58;8.10;;;;;;;;;;6299817;22;20347;-65
2022/11/01 00:46:42;;;;;;;28.33;8.15;;;;;;;;;;6300812;22;20027;-66
2022/11/01 00:49:09;;;;;;;39.67;9.45;;;;;;;;;;6301512;22;20034;-63
2022/11/01 00:51:36;;;;;;;44.17;8.65;;;;;;;;;;6301633;22;20019;-60
2022/11/01 00:54:10;;;;;;;38.15;10.85;;;;;;;;;;6300883;22;20033;-60
2022/11/01 00:56:37;;;;;;;28.95;8.20;;;;;;;;;;6300912;22;20098;-60
2022/11/01 00:59:17;;;;;;;32.88;8.82;;;;;;;;;;6300322;22;20337;-59
2022/11/01 01:01:45;;;;;;;43.28;11.20;;;;;;;;;;6300707;22;20021;-60
2022/11/01 01:04:19;;;;;;;41.75;10.05;;;;;;;;;;6301301;22;20073;-60
2022/11/01 01:06:46;;;;;;;38.83;10.77;;;;;;;;;;6301595;22;20022;-60
2022/11/01 01:09:20;;;;;;;43.55;10.05;;;;;;;;;;6300558;22;20098;-64
2022/11/01 01:11:47;;;;;;;45.33;10.63;;;;;;;;;;6301131;22;20046;-65
2022/11/01 01:14:14;;;;;;;36.72;11.13;;;;;;;;;;6299987;22;20027;-65
2022/11/01 01:16:48;;;;;;;40.65;10.55;;;;;;;;;;6300766;22;20023;-64
2022/11/01 01:19:15;;;;;;;30.50;9.60;;;;;;;;;;6301125;22;20021;-66
2022/11/01 01:21:42;;;;;;;37.33;10.55;;;;;;;;;;6298148;22;20024;-66
2022/11/01 01:24:16;;;;;;;31.90;9.70;;;;;;;;;;6300558;22;20031;-66
2022/11/01 01:26:56;;;;;;;27.92;9.93;;;;;;;;;;6301254;22;20030;-64
2022/11/01 01:29:30;;;;;;;33.65;10.15;;;;;;;;;;6301207;22;20022;-51
2022/11/01 01:32:04;;;;;;;27.38;11.27;;;;;;;;;;6301628;22;20025;-59
2022/11/01 01:34:32;;;;;;;44.75;10.65;;;;;;;;;;6301597;22;20022;-59
2022/11/01 01:36:59;;;;;;;33.30;10.73;;;;;;;;;;6301184;22;20019;-59
2022/11/01 01:39:33;;;;;;;34.38;10.55;;;;;;;;;;6301557;22;20019;-60
2022/11/01 01:42:00;;;;;;;;;;;;;;;;;;6301654;22;20325;-59
2022/11/01 01:44:46;;;;;;;25.02;9.50;;;;;;;;;;6300771;22;19961;-59
2022/11/01 01:47:15;;;;;;;23.33;9.95;;;;;;;;;;6302149;22;20101;-60
2022/11/01 01:49:56;;;;;;;31.27;9.50;;;;;;;;;;6301016;22;20033;-59
2022/11/01 01:52:38;;;;;;;28.35;9.68;;;;;;;;;;6301439;22;20023;-59
2022/11/01 01:55:06;;;;;;;30.27;9.18;;;;;;;;;;6301576;22;20106;-60
2022/11/01 01:57:54;;;;;;;33.90;10.05;;;;;;;;;;6299374;22;20031;-60
2022/11/01 02:00:21;;;;;;;28.33;9.07;;;;;;;;;;6301625;22;20118;-60
2022/11/01 02:02:55;;;;;;;22.80;8.32;;;;;;;;;;6301845;22;20027;-60
2022/11/01 02:05:34;;;;;;;34.05;10.07;;;;;;;;;;6274374;22;20094;-63
2022/11/01 02:08:08;;;;;;;21.08;8.65;;;;;;;;;;6300394;22;20027;-64
2022/11/01 02:10:35;;;;;;;;;;;;;;;;;;6301322;22;20023;-63
2022/11/01 02:13:13;;;;;;;27.23;8.27;;;;;;;;;;6299467;22;19993;-63
2022/11/01 02:15:59;;;;;;;23.13;8.35;;;;;;;;;;6301199;22;20023;-64
2022/11/01 02:18:51;;;;;;;32.63;8.75;;;;;;;;;;6298953;22;20015;-64
2022/11/01 02:21:41;;;;;;;37.72;8.30;;;;;;;;;;6301137;22;20527;-64
2022/11/01 02:24:33;;;;;;;34.97;9.15;;;;;;;;;;6301073;22;20054;-59
2022/11/01 02:27:14;;;;;;;20.42;8.45;;;;;;;;;;6301588;22;20098;-49
2022/11/01 02:29:44;;;;;;;31.75;8.95;;;;;;;;;;6300483;22;20098;-59
2022/11/01 02:32:30;;;;;;;35.55;8.82;;;;;;;;;;6300735;22;20019;-58
2022/11/01 02:34:57;;;;;;;26.55;9.27;;;;;;;;;;6298320;22;20025;-59
2022/11/01 02:37:36;;;;;;;38.17;9.90;;;;;;;;;;6298792;22;20015;-58
2022/11/01 02:40:08;;;;;;;32.22;9.82;;;;;;;;;;6299515;22;20025;-59
2022/11/01 02:42:43;;;;;;;20.23;8.02;;;;;;;;;;6299247;22;20019;-58
2022/11/01 02:45:31;;;;;;;29.52;7.10;;;;;;;;;;6300931;22;20026;-59
2022/11/01 02:48:05;;;;;;;26.80;7.45;;;;;;;;;;6299977;22;20090;-60
2022/11/01 02:50:32;;;;;;;;;;;;;;;;;;6300812;22;20015;-59
2022/11/01 02:53:06;;;;;;;27.25;6.18;;;;;;;;;;6299452;22;19923;-61
2022/11/01 02:55:34;;;;;;;;;;;;;;;;;;6301988;22;20095;-59
2022/11/01 02:58:32;;;;;;;16.15;4.75;;;;;;;;;;6300354;22;19982;-59
2022/11/01 03:01:14;;;;;;;15.48;5.32;;;;;;;;;;6300500;22;20023;-60
2022/11/01 03:03:48;;;;;;;22.35;6.43;;;;;;;;;;6300080;22;20030;-65
2022/11/01 03:06:35;;;;;;;20.95;5.97;;;;;;;;;;6300824;22;20408;-60
2022/11/01 03:09:11;;;;;;;14.30;4.97;;;;;;;;;;6300682;22;20033;-60
2022/11/01 03:11:47;;;;;;;15.02;6.00;;;;;;;;;;6298940;22;20019;-59
2022/11/01 03:14:32;;;;;;;14.48;5.63;;;;;;;;;;6300530;22;20026;-60
2022/11/01 03:17:01;;;;;;;11.98;5.68;;;;;;;;;;6299582;22;20025;-60
2022/11/01 03:19:36;;;;;;;15.88;5.50;;;;;;;;;;6297492;22;20091;-60
2022/11/01 03:22:10;;;;;;;13.15;5.10;;;;;;;;;;6301098;22;20020;-60
2022/11/01 03:24:54;;;;;;;12.40;4.40;;;;;;;;;;6300537;22;20090;-55
2022/11/01 03:27:31;;;;;;;10.68;4.43;;;;;;;;;;6299500;22;20019;-49
2022/11/01 03:30:01;;;;;;;8.23;3.80;;;;;;;;;;6298610;22;20097;-52
2022/11/01 03:32:42;;;;;;;8.30;3.97;;;;;;;;;;6299814;22;20050;-50
2022/11/01 03:35:13;;;;;;;5.35;2.72;;;;;;;;;;6300334;22;20094;-54
2022/11/01 03:37:48;;;;;;;6.13;3.00;;;;;;;;;;6299860;22;20058;-49
2022/11/01 03:40:16;;;;;;;6.35;3.22;;;;;;;;;;6299551;22;20081;-48
2022/11/01 03:42:51;;;;;;;4.72;2.90;;;;;;;;;;6299220;22;20029;-60
2022/11/01 03:45:22;;;;;;;6.68;2.78;;;;;;;;;;6300455;22;20391;-60
2022/11/01 03:47:56;;;;;;;4.47;2.40;;;;;;;;;;6301984;22;20062;-60
2022/11/01 03:50:25;;;;;;;5.63;3.35;;;;;;;;;;6301478;22;20061;-60
2022/11/01 03:52:59;;;;;;;6.10;2.90;;;;;;;;;;6275118;22;20015;-59
2022/11/01 03:55:26;;;;;;;6.38;2.97;;;;;;;;;;6300904;22;20062;-60
2022/11/01 03:58:13;;;;;;;5.97;3.50;;;;;;;;;;6301772;22;20019;-60
2022/11/01 04:00:47;;;;;;;5.65;3.15;;;;;;;;;;6301868;22;20027;-59
2022/11/01 04:03:21;;;;;;;4.70;3.30;;;;;;;;;;6301878;22;20019;-50
2022/11/01 04:05:49;;;;;;;7.72;3.42;;;;;;;;;;6301660;22;20470;-48
2022/11/01 04:08:16;;;;;;;11.00;3.92;;;;;;;;;;6303262;22;20097;-48
2022/11/01 04:10:50;;;;;;;8.43;3.88;;;;;;;;;;6302017;22;20351;-50
2022/11/01 04:13:17;;;;;;;10.23;4.38;;;;;;;;;;6303073;22;20472;-49
2022/11/01 04:21:30;;;;;;;12.18;4.55;;;;;;;;;;6303730;22;20051;-58
2022/11/01 04:23:58;;;;;;;7.95;3.67;;;;;;;;;;6300694;22;20026;-48
2022/11/01 04:26:32;;;;;;;9.30;3.95;;;;;;;;;;6301651;22;20065;-52
2022/11/01 04:28:59;;;;;;;;;;;;;;;;;;6302506;22;20478;-49
2022/11/01 04:31:34;;;;;;;13.05;4.07;;;;;;;;;;6302954;22;19998;-47
2022/11/01 04:34:02;;;;;;;7.95;4.40;;;;;;;;;;6301888;22;20054;-52
2022/11/01 04:36:37;;;;;;;9.73;3.75;;;;;;;;;;6302909;22;20407;-52
2022/11/01 04:39:04;;;;;;;11.60;3.90;;;;;;;;;;6303074;22;20460;-55
2022/11/01 04:41:31;;;;;;;7.63;3.88;;;;;;;;;;6301268;22;20019;-60
2022/11/01 04:44:05;;;;;;;7.63;4.05;;;;;;;;;;6302859;22;20054;-60
2022/11/01 04:46:39;;;;;;;7.95;4.15;;;;;;;;;;6303273;22;20019;-60
2022/11/01 04:49:13;;;;;;;11.35;4.53;;;;;;;;;;6303046;22;20106;-60
2022/11/01 04:51:47;;;;;;;8.15;4.30;;;;;;;;;;6301949;22;20680;-59
2022/11/01 04:54:21;;;;;;;13.05;5.10;;;;;;;;;;6301827;22;20019;-59
2022/11/01 04:56:55;;;;;;;8.82;4.78;;;;;;;;;;6302971;22;20476;-65
2022/11/01 04:59:29;;;;;;;9.07;4.70;;;;;;;;;;6300855;22;20586;-65
2022/11/01 05:02:03;;;;;;;11.15;4.28;;;;;;;;;;6302727;22;20059;-65
2022/11/01 05:04:30;;;;;;;14.10;5.03;;;;;;;;;;6303582;22;20019;-65
2022/11/01 05:07:04;;;;;;;12.43;5.47;;;;;;;;;;6301017;22;20094;-66
2022/11/01 05:09:31;;;;;;;15.95;5.60;;;;;;;;;;6275227;22;20502;-65
2022/11/01 05:12:05;;;;;;;18.85;6.50;;;;;;;;;;6302118;22;20505;-65
2022/11/01 05:14:32;;;;;;;13.20;5.90;;;;;;;;;;6302859;22;20490;-65
2022/11/01 05:17:06;;;;;;;17.00;6.78;;;;;;;;;;6302818;22;20029;-60
2022/11/01 05:19:33;;;;;;;17.17;6.65;;;;;;;;;;6300613;22;20456;-59
2022/11/01 05:22:00;;;;;;;21.00;6.72;;;;;;;;;;6300410;22;20053;-60
2022/11/01 05:24:34;;;;;;;10.38;5.30;;;;;;;;;;6301576;22;20033;-59
2022/11/01 05:27:01;;;;;;;;;;;;;;;;;;6301957;22;20058;-60
2022/11/01 05:29:35;;;;;;;11.10;4.60;;;;;;;;;;6299605;22;20458;-60
2022/11/01 05:32:02;;;;;;;13.20;5.20;;;;;;;;;;6299261;22;20019;-60
2022/11/01 05:34:36;;;;;;;13.70;5.88;;;;;;;;;;6299166;22;20106;-60
2022/11/01 05:37:03;;;;;;;10.32;4.82;;;;;;;;;;6298365;22;20106;-60
2022/11/01 05:39:30;;;;;;;7.70;4.68;;;;;;;;;;6298226;22;20023;-65
2022/11/01 05:42:04;;;;;;;10.30;5.03;;;;;;;;;;6298594;22;20243;-66
2022/11/01 05:44:31;;;;;;;14.98;6.30;;;;;;;;;;6296436;22;20098;-65
2022/11/01 05:46:58;;;;;;;10.88;5.53;;;;;;;;;;6300181;22;20110;-64
2022/11/01 05:49:32;;;;;;;8.68;5.20;;;;;;;;;;6300201;22;20019;-65
2022/11/01 05:51:59;;;;;;;7.97;4.85;;;;;;;;;;6301370;22;20356;-65
2022/11/01 05:54:26;;;;;;;10.30;4.43;;;;;;;;;;6301529;22;20094;-59
2022/11/01 05:57:00;;;;;;;8.32;3.80;;;;;;;;;;6301026;22;20015;-60
2022/11/01 05:59:34;;;;;;;7.45;3.60;;;;;;;;;;6299179;22;20027;-59
2022/11/01 06:02:15;;;;;;;7.43;3.42;;;;;;;;;;6301947;22;20023;-60
2022/11/01 06:04:42;;;;;;;5.60;3.00;;;;;;;;;;6301587;22;20077;-61
2022/11/01 06:07:16;;;;;;;5.50;3.20;;;;;;;;;;6301650;22;20053;-59
2022/11/01 06:09:43;;;;;;;;;;;;;;;;;;6302211;22;20019;-59
2022/11/01 06:12:10;;;;;;;4.00;2.72;;;;;;;;;;6302339;22;20374;-60
2022/11/01 06:14:44;;;;;;;5.53;3.20;;;;;;;;;;6302665;22;20049;-58
2022/11/01 06:17:12;;;;;;;5.07;3.13;;;;;;;;;;6300901;22;20019;-52
2022/11/01 06:19:46;;;;;;;7.45;2.80;;;;;;;;;;6300902;22;20025;-51
2022/11/01 06:22:13;;;;;;;7.20;3.15;;;;;;;;;;6302488;22;20023;-54
2022/11/01 06:24:41;;;;;;;4.63;3.42;;;;;;;;;;6300662;22;20098;-52
2022/11/01 06:27:15;;;;;;;4.25;2.88;;;;;;;;;;6301625;22;20411;-52
2022/11/01 06:29:42;;;;;;;3.83;2.85;;;;;;;;;;6300885;22;20368;-55
2022/11/01 06:32:16;;;;;;;5.10;3.10;;;;;;;;;;6301741;22;20090;-59
2022/11/01 06:34:43;;;;;;;5.18;3.58;;;;;;;;;;6300537;22;20023;-58
2022/11/01 06:37:17;;;;;;;4.68;3.13;;;;;;;;;;6301634;22;20019;-48
2022/11/01 06:39:44;;;;;;;5.85;3.38;;;;;;;;;;6300277;22;20023;-51
2022/11/01 06:42:11;;;;;;;5.82;3.58;;;;;;;;;;6275111;22;20021;-48
2022/11/01 06:44:45;;;;;;;6.95;4.00;;;;;;;;;;6302067;22;20023;-49
2022/11/01 06:47:12;;;;;;;8.70;4.10;;;;;;;;;;6300910;22;20026;-51
2022/11/01 06:49:46;;;;;;;8.35;3.90;;;;;;;;;;6301993;22;20099;-47
2022/11/01 06:52:13;;;;;;;5.90;3.88;;;;;;;;;;6301376;22;20019;-59
2022/11/01 06:54:40;;;;;;;8.48;4.80;;;;;;;;;;6300867;22;20282;-60
2022/11/01 06:57:14;;;;;;;9.68;4.47;;;;;;;;;;6301372;22;20054;-60
2022/11/01 06:59:48;;;;;;;8.07;4.30;;;;;;;;;;6300477;22;20019;-60
2022/11/01 07:02:24;;;;;;;7.13;4.40;;;;;;;;;;6301500;22;20468;-60
2022/11/01 07:04:55;;;;;;;9.13;4.65;;;;;;;;;;6299609;22;20076;-60
2022/11/01 07:07:29;;;;;;;9.75;4.45;;;;;;;;;;6301197;22;20023;-61
2022/11/01 07:09:56;;;;;;;10.05;4.72;;;;;;;;;;6300730;22;20110;-60
2022/11/01 07:12:23;;;;;;;10.63;5.50;;;;;;;;;;6300912;22;20094;-60
2022/11/01 07:14:57;;;;;;;8.75;4.43;;;;;;;;;;6300709;22;20037;-59
2022/11/01 07:17:24;;;;;;;9.60;5.38;;;;;;;;;;6301576;22;20027;-59
2022/11/01 07:19:58;;;;;;;11.15;5.47;;;;;;;;;;6301025;22;20019;-59
2022/11/01 07:22:25;;;;;;;11.60;5.63;;;;;;;;;;6302191;22;20026;-59
2022/11/01 07:24:52;;;;;;;12.50;5.75;;;;;;;;;;6299920;22;20426;-59
2022/11/01 07:27:26;;;;;;;11.88;6.07;;;;;;;;;;6301895;22;20667;-59
2022/11/01 07:29:53;;;;;;;14.68;6.15;;;;;;;;;;6299149;22;20464;-52
2022/11/01 07:32:27;;;;;;;9.80;5.85;;;;;;;;;;6301679;22;20038;-60
2022/11/01 07:34:54;;;;;;;10.60;5.63;;;;;;;;;;6300851;22;20029;-60
2022/11/01 07:37:21;;;;;;;11.82;5.97;;;;;;;;;;6299885;22;20038;-60
2022/11/01 07:39:55;;;;;;;10.95;5.90;;;;;;;;;;6300600;22;20504;-59
2022/11/01 07:42:22;;;;;;;11.98;6.25;;;;;;;;;;6300039;22;20340;-60
2022/11/01 07:44:49;;;;;;;13.15;6.53;;;;;;;;;;6300660;22;20387;-59
2022/11/01 07:47:23;;;;;;;8.77;6.20;;;;;;;;;;6301623;22;20095;-60
2022/11/01 07:49:50;;;;;;;9.80;5.50;;;;;;;;;;6300693;22;20122;-51
2022/11/01 07:52:24;;;;;;;6.10;3.70;;;;;;;;;;6301345;22;20026;-60
2022/11/01 07:54:51;;;;;;;11.95;5.95;;;;;;;;;;6299931;22;20027;-59
2022/11/01 07:57:18;;;;;;;14.35;6.03;;;;;;;;;;6302580;22;20019;-60
2022/11/01 08:00:06;;;;;;;11.25;5.53;;;;;;;;;;6298310;22;20053;-60
2022/11/01 08:02:40;;;;;;;14.57;6.05;;;;;;;;;;6300069;22;20019;-60
2022/11/01 08:05:09;;;;;;;13.05;5.78;;;;;;;;;;6301370;22;20023;-60
2022/11/01 08:07:37;;;;;;;8.98;5.72;;;;;;;;;;6301373;22;20071;-60
2022/11/01 08:10:11;;;;;;;9.63;5.50;;;;;;;;;;6300698;22;20029;-52
2022/11/01 08:12:38;;;;;;;;;;;;;;;;;;6301138;22;20027;-59
2022/11/01 08:15:06;;;;;;;6.68;4.38;;;;;;;;;;6299705;22;19994;-59
2022/11/01 08:17:40;;;;;;;8.88;5.43;;;;;;;;;;6300839;22;20019;-59
2022/11/01 08:20:07;;;;;;;9.43;4.65;;;;;;;;;;6301190;22;20094;-60
2022/11/01 08:22:41;;;;;;;8.88;4.40;;;;;;;;;;6300028;22;20094;-60
2022/11/01 08:25:08;;;;;;;11.38;4.32;;;;;;;;;;6299881;22;20027;-60
2022/11/01 08:27:35;;;;;;;7.68;4.65;;;;;;;;;;6301156;22;20351;-59
2022/11/01 08:30:09;;;;;;;7.30;4.10;;;;;;;;;;6298709;22;20023;-58
2022/11/01 08:32:36;;;;;;;12.00;4.28;;;;;;;;;;6299918;22;20512;-58
2022/11/01 08:35:11;;;;;;;7.43;4.35;;;;;;;;;;6302289;22;20019;-58
2022/11/01 08:37:46;;;;;;;8.73;3.63;;;;;;;;;;6301707;22;20102;-58
2022/11/01 08:40:20;;;;;;;9.35;3.40;;;;;;;;;;6301918;22;20021;-58
2022/11/01 08:42:47;;;;;;;;;;;;;;;;;;6301226;22;20110;-58
2022/11/01 08:45:14;;;;;;;6.93;2.92;;;;;;;;;;6301578;22;20006;-60
2022/11/01 08:47:48;;;;;;;8.98;3.47;;;;;;;;;;6302045;22;20026;-59
2022/11/01 08:50:16;;;;;;;6.43;3.95;;;;;;;;;;6302725;22;20084;-60
2022/11/01 08:52:50;;;;;;;12.23;4.18;;;;;;;;;;6300562;22;20456;-60
2022/11/01 08:55:17;;;;;;;10.50;4.45;;;;;;;;;;6302719;22;20519;-60
2022/11/01 08:57:44;;;;;;;9.05;4.00;;;;;;;;;;6302637;22;20102;-60
2022/11/01 09:00:25;;;;;;;7.22;4.25;;;;;;;;;;6301097;22;20098;-59
2022/11/01 09:02:52;;;;;;;7.55;4.40;;;;;;;;;;6302199;22;20361;-60
2022/11/01 09:05:28;;;;;;;7.07;3.65;;;;;;;;;;6303311;22;20023;-60
2022/11/01 09:07:56;;;;;;;10.43;3.20;;;;;;;;;;6302071;22;20015;-65
2022/11/01 09:10:24;;;;;;;11.60;3.92;;;;;;;;;;6302629;22;20023;-65
2022/11/01 09:12:59;;;;;;;8.95;4.55;;;;;;;;;;6300751;22;20965;-65
2022/11/01 09:15:27;;;;;;;13.00;4.05;;;;;;;;;;6302534;22;20081;-65
2022/11/01 09:18:04;;;;;;;8.77;4.13;;;;;;;;;;6301463;22;20098;-65
2022/11/01 09:20:31;;;;;;;5.93;3.78;;;;;;;;;;6300822;22;20019;-65
2022/11/01 09:22:59;;;;;;;6.03;3.30;;;;;;;;;;6301161;22;20640;-59
2022/11/01 09:25:33;;;;;;;7.88;3.40;;;;;;;;;;6302253;22;20027;-59
2022/11/01 09:28:00;;;;;;;9.30;3.97;;;;;;;;;;6301730;22;20015;-59
2022/11/01 09:30:29;;;;;;;6.32;3.15;;;;;;;;;;6300836;22;20019;-58
2022/11/01 09:33:22;;;;;;;6.20;3.08;;;;;;;;;;6303107;22;20089;-59
2022/11/01 09:35:50;;;;;;;10.55;3.90;;;;;;;;;;6301009;22;20396;-59
2022/11/01 09:38:26;;;;;;;5.07;3.40;;;;;;;;;;6302356;22;20027;-59
2022/11/01 09:41:10;;;;;;;8.02;3.75;;;;;;;;;;6301979;22;20460;-59
2022/11/01 09:43:44;;;;;;;8.40;3.80;;;;;;;;;;6300353;22;20019;-60
2022/11/01 09:46:14;;;;;;;13.10;3.78;;;;;;;;;;6301684;22;20551;-60
2022/11/01 09:48:42;;;;;;;10.52;4.53;;;;;;;;;;6301520;22;20019;-60
2022/11/01 09:51:19;;;;;;;5.50;3.50;;;;;;;;;;6301102;22;20417;-60
2022/11/01 09:53:48;;;;;;;6.60;3.78;;;;;;;;;;6301152;22;20022;-60
2022/11/01 09:56:37;;;;;;;7.35;3.83;;;;;;;;;;6301853;22;20092;-60
2022/11/01 09:59:28;;;;;;;6.28;3.58;;;;;;;;;;6300930;22;20041;-60
2022/11/01 10:02:20;;;;;;;5.32;3.42;;;;;;;;;;6301797;22;20023;-50
2022/11/01 10:04:54;;;;;;;6.63;3.45;;;;;;;;;;6301616;22;20015;-59
2022/11/01 10:07:37;;;;;;;6.35;3.75;;;;;;;;;;6302680;22;20540;-60
2022/11/01 10:10:23;;;;;;;6.32;3.60;;;;;;;;;;6302490;22;20519;-59
2022/11/01 10:13:11;;;;;;;7.43;3.90;;;;;;;;;;6301714;22;20030;-58
2022/11/01 10:15:50;;;;;;;6.78;3.45;;;;;;;;;;6301328;22;20460;-60
2022/11/01 10:18:28;;;;;;;6.32;3.95;;;;;;;;;;6302202;22;20026;-59
2022/11/01 10:21:01;;;;;;;12.13;4.00;;;;;;;;;;6299335;22;20023;-59
2022/11/01 10:23:42;;;;;;;8.20;3.80;;;;;;;;;;6301685;22;20474;-60
2022/11/01 10:26:12;;;;;;;7.93;3.78;;;;;;;;;;6302055;22;20027;-60
2022/11/01 10:28:58;;;;;;;6.82;4.28;;;;;;;;;;6300799;22;20019;-60
2022/11/01 10:31:43;;;;;;;4.80;2.88;;;;;;;;;;6301345;22;20023;-60
2022/11/01 10:34:24;;;;;;;8.63;3.65;;;;;;;;;;6300565;22;20025;-60
2022/11/01 10:36:55;;;;;;;5.57;3.25;;;;;;;;;;6301187;22;20102;-59
2022/11/01 10:39:32;;;;;;;5.85;3.47;;;;;;;;;;6276865;22;20023;-63
2022/11/01 10:42:19;;;;;;;4.93;3.28;;;;;;;;;;6300995;22;20051;-65
2022/11/01 10:44:54;;;;;;;5.95;3.05;;;;;;;;;;6301603;22;20023;-60
2022/11/01 10:47:28;;;;;;;5.47;3.45;;;;;;;;;;6302031;22;20046;-60
2022/11/01 10:50:00;;;;;;;6.07;2.58;;;;;;;;;;6300469;22;20029;-59
2022/11/01 10:52:49;;;;;;;6.70;3.25;;;;;;;;;;6300866;22;20022;-60
2022/11/01 10:55:26;;;;;;;5.18;2.90;;;;;;;;;;6301859;22;20016;-59
2022/11/01 10:58:05;;;;;;;7.20;3.10;;;;;;;;;;6300851;22;20022;-60
2022/11/01 11:00:41;;;;;;;6.63;3.15;;;;;;;;;;6300544;22;20040;-64
2022/11/01 11:03:23;;;;;;;8.75;2.90;;;;;;;;;;6301294;22;20412;-60
2022/11/01 11:05:51;;;;;;;6.22;2.90;;;;;;;;;;6299803;22;20023;-59
2022/11/01 11:08:25;;;;;;;4.63;2.60;;;;;;;;;;6300815;22;20019;-60
2022/11/01 11:10:54;;;;;;;5.68;2.88;;;;;;;;;;6300977;22;20094;-59
2022/11/01 11:13:29;;;;;;;5.15;3.13;;;;;;;;;;6299954;22;20025;-60
2022/11/01 11:16:01;;;;;;;6.00;2.70;;;;;;;;;;6301160;22;20359;-59
2022/11/01 11:18:32;;;;;;;4.88;2.28;;;;;;;;;;6300946;22;20015;-65
2022/11/01 11:21:07;;;;;;;5.40;2.88;;;;;;;;;;6301484;22;20030;-64
2022/11/01 11:23:39;;;;;;;4.50;2.17;;;;;;;;;;6300384;22;20023;-65
2022/11/01 11:26:18;;;;;;;6.22;2.78;;;;;;;;;;6300945;22;20034;-64
2022/11/01 11:28:47;;;;;;;3.75;2.40;;;;;;;;;;6301012;22;20069;-64
2022/11/01 11:31:27;;;;;;;6.15;2.60;;;;;;;;;;6299694;22;20016;-64
2022/11/01 11:33:56;;;;;;;3.42;2.30;;;;;;;;;;6300377;22;20023;-64
2022/11/01 11:36:39;;;;;;;4.55;2.50;;;;;;;;;;6299374;22;20355;-65
2022/11/01 11:39:22;;;;;;;5.20;2.72;;;;;;;;;;6300824;22;20472;-60
2022/11/01 11:42:16;;;;;;;4.47;2.50;;;;;;;;;;6300488;22;20023;-47
2022/11/01 11:44:52;;;;;;;4.28;2.40;;;;;;;;;;6300626;22;20023;-54
2022/11/01 11:47:27;;;;;;;5.32;2.60;;;;;;;;;;6299815;22;20085;-49
2022/11/01 11:50:15;;;;;;;4.32;2.85;;;;;;;;;;6299957;22;20110;-49
2022/11/01 11:52:42;;;;;;;7.70;2.67;;;;;;;;;;6300501;22;20029;-54
2022/11/01 11:55:34;;;;;;;3.45;2.70;;;;;;;;;;6299826;22;20046;-51
2022/11/01 11:58:04;;;;;;;6.05;2.75;;;;;;;;;;6299257;22;20034;-63
2022/11/01 12:00:45;;;;;;;4.43;2.67;;;;;;;;;;6299634;22;20094;-51
2022/11/01 12:03:13;;;;;;;3.50;2.60;;;;;;;;;;6300170;22;20478;-47
2022/11/01 12:05:55;;;;;;;4.05;2.40;;;;;;;;;;6298016;22;20359;-50
2022/11/01 12:08:25;;;;;;;3.97;2.72;;;;;;;;;;6302978;22;20023;-51
2022/11/01 12:10:59;;;;;;;5.90;2.17;;;;;;;;;;6302155;22;20097;-51
2022/11/01 12:13:34;;;;;;;3.30;2.40;;;;;;;;;;6301358;22;20029;-52
2022/11/01 12:16:11;;;;;;;5.78;3.00;;;;;;;;;;6302961;22;20334;-60
2022/11/01 12:18:51;;;;;;;4.88;2.78;;;;;;;;;;6302706;22;20026;-60
2022/11/01 12:21:28;;;;;;;4.63;2.67;;;;;;;;;;6302828;22;20463;-60
2022/11/01 12:24:00;;;;;;;3.03;2.22;;;;;;;;;;6301799;22;20103;-60
2022/11/01 12:26:35;;;;;;;5.65;2.72;;;;;;;;;;6300961;22;20027;-60
2022/11/01 12:29:03;;;;;;;4.78;2.58;;;;;;;;;;6302475;22;20015;-60
2022/11/01 12:31:38;;;;;;;8.02;2.70;;;;;;;;;;6301969;22;20329;-60
2022/11/01 12:34:27;;;;;;;5.00;2.60;;;;;;;;;;6301669;22;20094;-60
2022/11/01 12:37:29;;;;;;;6.05;3.15;;;;;;;;;;6302771;22;20023;-62
2022/11/01 12:40:06;;;;;;;7.65;3.30;;;;;;;;;;6301672;22;20341;-64
2022/11/01 12:42:43;;;;;;;7.05;2.85;;;;;;;;;;6301823;22;20023;-64
2022/11/01 12:45:15;;;;;;;4.40;2.70;;;;;;;;;;6301522;22;20050;-63
2022/11/01 12:47:53;;;;;;;7.28;2.80;;;;;;;;;;6302350;22;20019;-63
2022/11/01 12:50:26;;;;;;;4.32;2.85;;;;;;;;;;6300384;22;20030;-64
2022/11/01 12:53:02;;;;;;;5.68;2.80;;;;;;;;;;6302025;22;20102;-60
2022/11/01 12:55:48;;;;;;;5.05;3.10;;;;;;;;;;6301706;22;20065;-60
2022/11/01 12:58:22;;;;;;;5.40;2.78;;;;;;;;;;6301993;22;20020;-52
2022/11/01 13:01:06;;;;;;;7.20;3.22;;;;;;;;;;6301549;22;20046;-50
2022/11/01 13:03:46;;;;;;;6.82;3.00;;;;;;;;;;6300820;22;20399;-51
2022/11/01 13:06:20;;;;;;;4.50;3.00;;;;;;;;;;6302047;22;20103;-51
2022/11/01 13:09:01;;;;;;;5.03;3.10;;;;;;;;;;6301196;22;20479;-53
2022/11/01 13:11:38;;;;;;;5.60;3.25;;;;;;;;;;6300220;22;20023;-53
2022/11/01 13:14:32;;;;;;;6.25;3.08;;;;;;;;;;6302370;22;20015;-53
2022/11/01 13:17:19;;;;;;;6.85;3.25;;;;;;;;;;6237735;22;20023;-50
2022/11/01 13:20:06;;;;;;;5.03;3.45;;;;;;;;;;6285556;22;20061;-49
2022/11/01 13:22:45;;;;;;;6.82;3.40;;;;;;;;;;6300143;22;20463;-52
2022/11/01 13:25:22;;;;;;;11.57;3.70;;;;;;;;;;6301211;22;20406;-48
2022/11/01 13:28:07;;;;;;;14.23;5.32;;;;;;;;;;6301032;22;20019;-51
2022/11/01 13:30:43;;;;;;;5.60;3.05;;;;;;;;;;6300873;22;20019;-63
2022/11/01 13:33:14;;;;;;;7.20;3.80;;;;;;;;;;6301156;22;20106;-59
2022/11/01 13:35:57;;;;;;;8.98;4.35;;;;;;;;;;6301326;22;20047;-49
2022/11/01 13:38:27;;;;;;;8.65;3.97;;;;;;;;;;6302729;22;20356;-49
2022/11/01 13:41:21;;;;;;;9.10;4.03;;;;;;;;;;6300958;22;20098;-50
2022/11/01 13:43:52;;;;;;;8.52;3.85;;;;;;;;;;6300958;22;20023;-47
2022/11/01 13:46:35;;;;;;;9.02;4.57;;;;;;;;;;6302724;22;20034;-51
2022/11/01 13:49:05;;;;;;;7.78;4.22;;;;;;;;;;6299540;22;20069;-52
2022/11/01 13:51:56;;;;;;;12.95;4.82;;;;;;;;;;6301232;22;20102;-60
2022/11/01 13:54:36;;;;;;;14.90;4.78;;;;;;;;;;6301730;22;20084;-49
2022/11/01 13:57:12;;;;;;;7.40;4.22;;;;;;;;;;6301929;22;20023;-51
2022/11/01 13:59:46;;;;;;;6.82;4.53;;;;;;;;;;6301671;22;20022;-52
2022/11/01 14:02:27;;;;;;;8.98;5.03;;;;;;;;;;6300296;22;20019;-51
2022/11/01 14:04:57;;;;;;;14.07;5.32;;;;;;;;;;6301357;22;20027;-49
2022/11/01 14:07:33;;;;;;;7.90;4.85;;;;;;;;;;6300994;22;20494;-49
2022/11/01 14:10:00;;;;;;;13.88;5.85;;;;;;;;;;6300718;22;20133;-60
2022/11/01 14:12:32;;;;;;;11.90;5.72;;;;;;;;;;6301609;22;20355;-50
2022/11/01 14:15:16;;;;;;;13.05;5.25;;;;;;;;;;6300029;22;20019;-50
2022/11/01 14:17:55;;;;;;;12.68;5.65;;;;;;;;;;6299969;22;20021;-51
2022/11/01 14:20:32;;;;;;;10.25;5.13;;;;;;;;;;6302052;22;20104;-49
2022/11/01 14:23:19;;;;;;;8.48;5.35;;;;;;;;;;6299521;22;20019;-50
2022/11/01 14:26:12;;;;;;;11.70;5.68;;;;;;;;;;6300177;22;20225;-52
2022/11/01 14:28:43;;;;;;;9.52;5.40;;;;;;;;;;6300345;22;20325;-64
2022/11/01 14:31:22;;;;;;;9.20;4.80;;;;;;;;;;6301208;22;20494;-64
2022/11/01 14:33:50;;;;;;;9.90;5.15;;;;;;;;;;6300217;22;20467;-64
2022/11/01 14:36:28;;;;;;;11.43;5.90;;;;;;;;;;6299608;22;20046;-64
2022/11/01 14:39:15;;;;;;;14.50;6.47;;;;;;;;;;6301385;22;20061;-64
2022/11/01 14:41:49;;;;;;;10.55;5.95;;;;;;;;;;6300542;22;20023;-64
2022/11/01 14:44:29;;;;;;;9.15;5.38;;;;;;;;;;6300104;22;20045;-64
2022/11/01 14:47:04;;;;;;;9.00;5.18;;;;;;;;;;6299723;22;20463;-51
2022/11/01 14:49:39;;;;;;;9.52;5.57;;;;;;;;;;6302128;22;20026;-64
2022/11/01 14:52:29;;;;;;;11.40;5.32;;;;;;;;;;6299178;22;20025;-52
2022/11/01 14:55:00;;;;;;;8.85;5.50;;;;;;;;;;6300554;22;20102;-54
2022/11/01 14:57:35;;;;;;;11.73;6.28;;;;;;;;;;6300468;22;20110;-51
2022/11/01 15:00:44;;;;;;;10.95;5.53;;;;;;;;;;6300249;22;20383;-54
2022/11/01 15:03:19;;;;;;;11.07;6.00;;;;;;;;;;6174673;23;20029;-54
2022/11/01 15:05:48;;;;;;;13.30;5.40;;;;;;;;;;6287336;22;20029;-55
2022/11/01 15:08:29;;;;;;;9.88;5.35;;;;;;;;;;6299970;22;20099;-51
2022/11/01 15:10:59;;;;;;;11.30;5.97;;;;;;;;;;6299363;22;20102;-64
2022/11/01 15:13:37;;;;;;;8.18;5.90;;;;;;;;;;6299940;22;20025;-65
2022/11/01 15:16:15;;;;;;;12.30;6.88;;;;;;;;;;6298782;22;20336;-65
2022/11/01 15:18:58;;;;;;;14.88;6.05;;;;;;;;;;6299496;22;20030;-64
2022/11/01 15:21:33;;;;;;;9.82;5.55;;;;;;;;;;6301250;22;20072;-65
2022/11/01 15:24:01;;;;;;;10.10;5.80;;;;;;;;;;6293980;22;20029;-65
2022/11/01 15:26:35;;;;;;;8.77;5.28;;;;;;;;;;6298369;22;20061;-50